createdAt,value
2018-08-28T00:00:28.077Z,94.30
2018-08-28T00:05:31.127Z,94.30
2018-08-28T00:10:34.160Z,94.40
2018-08-28T00:15:37.301Z,94.60
2018-08-28T00:20:40.363Z,94.90
2018-08-28T00:25:43.485Z,95.20
2018-08-28T00:30:46.595Z,95.30
2018-08-28T00:35:49.731Z,95.30
2018-08-28T00:40:52.747Z,95.40
2018-08-28T00:45:55.909Z,95.70
2018-08-28T00:50:59.027Z,95.90
2018-08-28T00:56:02.125Z,96.20
2018-08-28T01:01:05.220Z,96.40
2018-08-28T01:06:08.308Z,96.50
2018-08-28T01:11:11.334Z,96.80
2018-08-28T01:16:14.428Z,96.80
2018-08-28T01:21:17.451Z,96.80
2018-08-28T01:26:20.516Z,96.80
2018-08-28T01:31:23.548Z,97.20
2018-08-28T01:36:26.547Z,97.30
2018-08-28T01:41:29.585Z,97.40
2018-08-28T01:46:32.656Z,97.50
2018-08-28T01:51:35.780Z,97.40
2018-08-28T01:56:38.959Z,97.60
2018-08-28T02:01:42.002Z,97.50
2018-08-28T02:06:45.036Z,97.40
2018-08-28T02:11:48.075Z,97.50
2018-08-28T02:16:51.104Z,97.60
2018-08-28T02:21:54.162Z,97.70
2018-08-28T02:26:57.192Z,97.70
2018-08-28T02:32:00.220Z,97.60
2018-08-28T02:37:03.248Z,97.70
2018-08-28T02:42:06.274Z,97.90
2018-08-28T02:47:09.412Z,97.80
2018-08-28T02:52:12.489Z,97.80
2018-08-28T02:57:15.502Z,97.80
2018-08-28T03:02:18.524Z,97.90
2018-08-28T03:07:21.548Z,97.70
2018-08-28T03:12:24.560Z,97.80
2018-08-28T03:17:27.572Z,98.00
2018-08-28T03:22:30.635Z,98.20
2018-08-28T03:27:33.666Z,98.20
2018-08-28T03:32:36.671Z,98.30
2018-08-28T03:37:39.693Z,98.30
2018-08-28T03:42:42.865Z,98.20
2018-08-28T03:47:45.901Z,98.20
2018-08-28T03:52:49.080Z,98.20
2018-08-28T03:57:52.108Z,97.90
2018-08-28T04:02:55.127Z,97.70
2018-08-28T04:07:58.288Z,97.70
2018-08-28T04:13:01.326Z,97.60
2018-08-28T04:18:04.356Z,97.60
2018-08-28T04:23:07.392Z,97.50
2018-08-28T04:28:10.412Z,97.50
2018-08-28T04:33:13.466Z,97.50
2018-08-28T04:38:16.494Z,97.30
2018-08-28T04:43:19.518Z,97.20
2018-08-28T04:48:22.545Z,97.20
2018-08-28T04:53:25.714Z,97.60
2018-08-28T04:58:28.786Z,97.20
2018-08-28T05:03:31.747Z,97.20
2018-08-28T05:08:34.924Z,97.10
2018-08-28T05:13:38.019Z,97.20
2018-08-28T05:18:41.042Z,97.30
2018-08-28T05:23:44.072Z,97.10
2018-08-28T05:28:47.082Z,97.30
2018-08-28T05:33:50.105Z,97.40
2018-08-28T05:38:53.173Z,97.30
2018-08-28T05:43:56.220Z,97.20
2018-08-28T05:48:59.252Z,97.40
2018-08-28T05:54:02.288Z,97.20
2018-08-28T05:59:05.335Z,97.20
2018-08-28T06:04:08.393Z,97.10
2018-08-28T06:09:11.945Z,97.00
2018-08-28T06:14:14.966Z,96.90
2018-08-28T06:19:18.078Z,96.80
2018-08-28T06:24:21.132Z,96.60
2018-08-28T06:29:24.215Z,96.50
2018-08-28T06:34:27.273Z,96.10
2018-08-28T06:39:30.297Z,95.80
2018-08-28T06:44:33.312Z,95.80
2018-08-28T06:49:36.421Z,95.40
2018-08-28T06:54:39.732Z,95.20
2018-08-28T06:59:42.856Z,95.00
2018-08-28T07:04:45.876Z,94.70
2018-08-28T07:09:48.900Z,94.30
2018-08-28T07:14:51.943Z,93.80
2018-08-28T07:19:55.033Z,94.20
2018-08-28T07:24:58.881Z,93.40
2018-08-28T07:30:01.925Z,93.20
2018-08-28T07:35:05.092Z,93.10
2018-08-28T07:40:08.120Z,93.00
2018-08-28T07:45:11.331Z,92.40
2018-08-28T07:50:14.365Z,91.90
2018-08-28T07:55:17.401Z,92.00
2018-08-28T08:00:20.425Z,91.90
2018-08-28T08:05:23.467Z,91.30
2018-08-28T08:10:26.525Z,91.10
2018-08-28T08:15:29.648Z,91.00
2018-08-28T08:20:32.849Z,91.40
2018-08-28T08:25:35.908Z,90.50
2018-08-28T08:30:38.996Z,90.30
2018-08-28T08:35:42.160Z,90.20
2018-08-28T08:40:46.681Z,89.40
2018-08-28T08:45:50.273Z,88.90
2018-08-28T08:50:53.671Z,87.50
2018-08-28T08:55:56.804Z,84.20
2018-08-28T09:00:59.865Z,83.00
2018-08-28T09:06:03.034Z,82.90
2018-08-28T09:11:06.095Z,81.90
2018-08-28T09:16:09.232Z,79.10
2018-08-28T09:21:12.344Z,78.80
2018-08-28T09:26:16.384Z,77.00
2018-08-28T09:31:19.482Z,77.90
2018-08-28T09:36:22.542Z,76.30
2018-08-28T09:41:25.675Z,76.60
2018-08-28T09:46:28.713Z,75.90
2018-08-28T09:51:31.783Z,74.90
2018-08-28T09:56:34.872Z,76.60
2018-08-28T10:01:42.702Z,74.70
2018-08-28T10:06:45.789Z,71.50
2018-08-28T10:11:48.892Z,69.80
2018-08-28T10:16:51.918Z,68.80
2018-08-28T10:21:54.947Z,65.90
2018-08-28T10:26:57.968Z,65.60
2018-08-28T10:32:00.988Z,62.70
2018-08-28T10:37:04.063Z,63.80
2018-08-28T10:42:07.114Z,62.00
2018-08-28T10:47:10.150Z,61.60
2018-08-28T10:52:13.156Z,59.80
2018-08-28T10:57:16.160Z,60.80
2018-08-28T11:02:19.169Z,60.80
2018-08-28T11:07:22.212Z,57.60
2018-08-28T11:12:25.245Z,56.50
2018-08-28T11:17:28.327Z,55.30
2018-08-28T11:22:31.386Z,55.10
2018-08-28T11:27:34.435Z,54.10
2018-08-28T11:32:37.472Z,53.90
2018-08-28T11:37:40.596Z,54.10
2018-08-28T11:42:43.664Z,54.40
2018-08-28T11:47:46.701Z,54.80
2018-08-28T11:52:49.732Z,56.80
2018-08-28T11:57:52.755Z,55.30
2018-08-28T12:02:55.864Z,56.10
2018-08-28T12:07:58.914Z,57.30
2018-08-28T12:13:01.992Z,58.20
2018-08-28T12:18:05.008Z,59.30
2018-08-28T12:23:08.068Z,58.90
2018-08-28T12:28:11.091Z,57.80
2018-08-28T12:33:14.153Z,58.90
2018-08-28T12:38:17.307Z,58.40
2018-08-28T12:43:20.450Z,58.30
2018-08-28T12:48:23.499Z,58.90
2018-08-28T12:53:26.524Z,59.50
2018-08-28T12:58:29.549Z,59.00
2018-08-28T13:03:32.574Z,58.50
2018-08-28T13:08:35.617Z,59.50
2018-08-28T13:13:38.636Z,58.50
2018-08-28T13:18:41.733Z,58.20
2018-08-28T13:23:44.808Z,58.10
2018-08-28T13:28:47.865Z,57.60
2018-08-28T13:33:50.893Z,57.70
2018-08-28T13:38:53.934Z,56.10
2018-08-28T13:43:57.183Z,57.00
2018-08-28T13:49:00.216Z,55.60
2018-08-28T13:54:03.381Z,56.20
2018-08-28T13:59:06.723Z,56.20
2018-08-28T14:04:09.754Z,56.60
2018-08-28T14:09:12.768Z,55.50
2018-08-28T14:14:15.886Z,53.70
2018-08-28T14:19:18.908Z,52.80
2018-08-28T14:24:22.122Z,54.20
2018-08-28T14:29:25.255Z,54.60
2018-08-28T14:34:28.175Z,54.80
2018-08-28T14:39:31.245Z,52.60
2018-08-28T14:44:34.328Z,52.40
2018-08-28T14:49:37.457Z,54.30
2018-08-28T14:54:40.516Z,54.10
2018-08-28T14:59:43.627Z,53.70
2018-08-28T15:04:46.676Z,53.50
2018-08-28T15:09:49.708Z,52.90
2018-08-28T15:14:52.760Z,52.80
2018-08-28T15:19:55.780Z,53.60
2018-08-28T15:24:58.832Z,53.10
2018-08-28T15:30:01.901Z,53.80
2018-08-28T15:35:04.921Z,54.00
2018-08-28T15:40:07.992Z,53.80
2018-08-28T15:45:11.016Z,53.60
2018-08-28T15:50:14.019Z,54.00
2018-08-28T15:55:17.264Z,54.20
2018-08-28T16:00:20.288Z,54.60
2018-08-28T16:05:23.318Z,54.90
2018-08-28T16:10:26.331Z,54.80
2018-08-28T16:15:29.398Z,55.10
2018-08-28T16:20:32.456Z,54.70
2018-08-28T16:25:35.590Z,53.80
2018-08-28T16:30:38.615Z,53.80
2018-08-28T16:35:41.655Z,54.40
2018-08-28T16:40:44.848Z,53.50
2018-08-28T16:45:47.911Z,52.30
2018-08-28T16:50:50.920Z,51.90
2018-08-28T16:55:54.070Z,52.70
2018-08-28T17:00:57.105Z,54.20
2018-08-28T17:06:00.364Z,54.20
2018-08-28T17:11:03.486Z,53.90
2018-08-28T17:16:06.656Z,52.90
2018-08-28T17:21:09.699Z,52.10
2018-08-28T17:26:13.797Z,52.50
2018-08-28T17:31:16.871Z,53.80
2018-08-28T17:36:20.017Z,54.30
2018-08-28T17:41:23.061Z,55.50
2018-08-28T17:46:26.137Z,55.70
2018-08-28T17:51:29.173Z,56.40
2018-08-28T17:56:32.224Z,57.20
2018-08-28T18:01:35.278Z,58.00
2018-08-28T18:06:38.281Z,58.40
2018-08-28T18:11:41.357Z,59.20
2018-08-28T18:16:44.461Z,59.70
2018-08-28T18:21:48.485Z,61.10
2018-08-28T18:26:51.704Z,61.60
2018-08-28T18:31:54.735Z,62.80
2018-08-28T18:36:57.751Z,63.00
2018-08-28T18:42:00.947Z,63.50
2018-08-28T18:47:03.987Z,65.10
2018-08-28T18:52:07.020Z,66.50
2018-08-28T18:57:10.096Z,66.40
2018-08-28T19:02:13.181Z,66.90
2018-08-28T19:07:16.656Z,68.20
2018-08-28T19:12:19.713Z,69.10
2018-08-28T19:17:22.789Z,70.40
2018-08-28T19:22:25.828Z,70.40
2018-08-28T19:27:28.845Z,70.60
2018-08-28T19:32:31.951Z,71.30
2018-08-28T19:37:35.220Z,71.70
2018-08-28T19:42:38.211Z,72.90
2018-08-28T19:47:41.474Z,73.30
2018-08-28T19:52:44.556Z,74.00
2018-08-28T19:57:47.641Z,74.10
2018-08-28T20:02:51.575Z,74.40
2018-08-28T20:07:55.841Z,75.50
2018-08-28T20:12:58.957Z,75.90
2018-08-28T20:18:02.018Z,77.10
2018-08-28T20:23:05.092Z,77.80
2018-08-28T20:28:08.156Z,78.10
2018-08-28T20:33:11.229Z,79.10
2018-08-28T20:38:14.407Z,79.90
2018-08-28T20:43:17.530Z,81.60
2018-08-28T20:48:20.568Z,80.90
2018-08-28T20:53:23.578Z,81.70
2018-08-28T20:58:26.674Z,82.50
2018-08-28T21:03:29.675Z,82.80
2018-08-28T21:08:32.704Z,83.00
2018-08-28T21:13:35.746Z,83.60
2018-08-28T21:18:39.338Z,84.30
2018-08-28T21:23:42.384Z,84.50
2018-08-28T21:28:45.417Z,85.40
2018-08-28T21:33:48.476Z,85.90
2018-08-28T21:38:51.520Z,86.50
2018-08-28T21:43:54.588Z,87.10
2018-08-28T21:48:57.623Z,87.50
2018-08-28T21:54:00.901Z,87.70
2018-08-28T21:59:03.935Z,88.20
2018-08-28T22:04:07.013Z,89.20
2018-08-28T22:09:10.047Z,89.60
2018-08-28T22:14:13.072Z,89.00
2018-08-28T22:19:16.109Z,90.00
2018-08-28T22:24:19.122Z,90.20
2018-08-28T22:29:22.147Z,90.30
2018-08-28T22:34:25.160Z,90.30
2018-08-28T22:39:28.178Z,90.60
2018-08-28T22:44:31.217Z,90.70
2018-08-28T22:49:34.247Z,90.70
2018-08-28T22:54:37.261Z,91.00
2018-08-28T22:59:40.262Z,91.00
2018-08-28T23:04:43.314Z,91.10
2018-08-28T23:09:46.315Z,91.20
2018-08-28T23:14:49.336Z,91.40
2018-08-28T23:19:52.359Z,91.50
2018-08-28T23:24:55.399Z,91.60
2018-08-28T23:29:58.407Z,91.70
2018-08-28T23:35:01.681Z,91.70
2018-08-28T23:40:04.755Z,91.90
2018-08-28T23:45:07.771Z,92.00
2018-08-28T23:50:10.802Z,92.00
2018-08-28T23:55:13.828Z,92.00
